sensor_id;sensor_type;location;lat;lon;timestamp;P1;durP1;ratioP1;P2;durP2;ratioP2
71814;SDS011;59659;41.520;23.794;2023-04-03T00:00:57;8.57;;;3.55;;
71814;SDS011;59659;41.520;23.794;2023-04-03T00:02:08;6.50;;;2.10;;
71814;SDS011;59659;41.520;23.794;2023-04-03T00:03:20;5.53;;;2.33;;
71814;SDS011;59659;41.520;23.794;2023-04-03T00:04:31;3.85;;;2.13;;
71814;SDS011;59659;41.520;23.794;2023-04-03T00:05:43;4.25;;;2.15;;
71814;SDS011;59659;41.520;23.794;2023-04-03T00:06:54;3.85;;;2.08;;
71814;SDS011;59659;41.520;23.794;2023-04-03T00:08:06;7.13;;;1.90;;
71814;SDS011;59659;41.520;23.794;2023-04-03T00:09:19;5.78;;;2.42;;
71814;SDS011;59659;41.520;23.794;2023-04-03T00:10:30;4.20;;;2.20;;
71814;SDS011;59659;41.520;23.794;2023-04-03T00:11:42;8.27;;;2.30;;
71814;SDS011;59659;41.520;23.794;2023-04-03T00:12:54;4.20;;;2.33;;
71814;SDS011;59659;41.520;23.794;2023-04-03T00:14:05;6.38;;;2.28;;
71814;SDS011;59659;41.520;23.794;2023-04-03T00:15:17;4.93;;;1.95;;
71814;SDS011;59659;41.520;23.794;2023-04-03T00:16:28;4.53;;;2.05;;
71814;SDS011;59659;41.520;23.794;2023-04-03T00:17:40;4.45;;;1.70;;
71814;SDS011;59659;41.520;23.794;2023-04-03T00:18:51;5.03;;;1.80;;
71814;SDS011;59659;41.520;23.794;2023-04-03T00:20:03;3.75;;;1.77;;
71814;SDS011;59659;41.520;23.794;2023-04-03T00:21:14;5.57;;;2.10;;
71814;SDS011;59659;41.520;23.794;2023-04-03T00:22:26;6.60;;;2.50;;
71814;SDS011;59659;41.520;23.794;2023-04-03T00:23:39;3.95;;;2.33;;
71814;SDS011;59659;41.520;23.794;2023-04-03T00:24:51;10.20;;;2.40;;
71814;SDS011;59659;41.520;23.794;2023-04-03T00:26:05;3.60;;;1.73;;
71814;SDS011;59659;41.520;23.794;2023-04-03T00:27:17;6.03;;;2.30;;
71814;SDS011;59659;41.520;23.794;2023-04-03T00:28:31;8.40;;;2.17;;
71814;SDS011;59659;41.520;23.794;2023-04-03T00:29:43;6.65;;;2.10;;
71814;SDS011;59659;41.520;23.794;2023-04-03T00:30:54;2.85;;;1.17;;
71814;SDS011;59659;41.520;23.794;2023-04-03T00:32:06;3.25;;;1.63;;
71814;SDS011;59659;41.520;23.794;2023-04-03T00:33:17;4.65;;;1.38;;
71814;SDS011;59659;41.520;23.794;2023-04-03T00:34:33;4.50;;;1.67;;
71814;SDS011;59659;41.520;23.794;2023-04-03T00:35:44;2.55;;;1.60;;
71814;SDS011;59659;41.520;23.794;2023-04-03T00:36:56;2.97;;;1.42;;
71814;SDS011;59659;41.520;23.794;2023-04-03T00:38:08;2.97;;;1.75;;
71814;SDS011;59659;41.520;23.794;2023-04-03T00:39:20;2.72;;;1.35;;
71814;SDS011;59659;41.520;23.794;2023-04-03T00:40:35;2.70;;;1.63;;
71814;SDS011;59659;41.520;23.794;2023-04-03T00:41:47;4.55;;;1.30;;
71814;SDS011;59659;41.520;23.794;2023-04-03T00:42:59;3.42;;;1.30;;
71814;SDS011;59659;41.520;23.794;2023-04-03T00:44:20;3.10;;;1.20;;
71814;SDS011;59659;41.520;23.794;2023-04-03T00:45:36;3.00;;;1.50;;
71814;SDS011;59659;41.520;23.794;2023-04-03T00:46:48;4.07;;;1.50;;
71814;SDS011;59659;41.520;23.794;2023-04-03T00:47:59;4.38;;;1.33;;
71814;SDS011;59659;41.520;23.794;2023-04-03T00:49:12;2.15;;;1.20;;
71814;SDS011;59659;41.520;23.794;2023-04-03T00:50:23;7.38;;;1.77;;
71814;SDS011;59659;41.520;23.794;2023-04-03T00:51:35;2.63;;;1.83;;
71814;SDS011;59659;41.520;23.794;2023-04-03T00:52:46;3.53;;;1.67;;
71814;SDS011;59659;41.520;23.794;2023-04-03T00:54:00;5.22;;;1.58;;
71814;SDS011;59659;41.520;23.794;2023-04-03T00:55:13;4.50;;;1.95;;
71814;SDS011;59659;41.520;23.794;2023-04-03T00:56:26;7.00;;;1.92;;
71814;SDS011;59659;41.520;23.794;2023-04-03T00:57:38;12.35;;;2.03;;
71814;SDS011;59659;41.520;23.794;2023-04-03T00:58:54;6.25;;;1.73;;
71814;SDS011;59659;41.520;23.794;2023-04-03T01:00:10;7.90;;;2.45;;
71814;SDS011;59659;41.520;23.794;2023-04-03T01:01:23;4.68;;;1.98;;
71814;SDS011;59659;41.520;23.794;2023-04-03T01:02:35;9.27;;;2.88;;
71814;SDS011;59659;41.520;23.794;2023-04-03T01:03:47;13.07;;;2.42;;
71814;SDS011;59659;41.520;23.794;2023-04-03T01:04:58;6.75;;;2.75;;
71814;SDS011;59659;41.520;23.794;2023-04-03T01:06:09;8.27;;;2.67;;
71814;SDS011;59659;41.520;23.794;2023-04-03T01:07:22;7.13;;;2.47;;
71814;SDS011;59659;41.520;23.794;2023-04-03T01:08:34;7.78;;;2.40;;
71814;SDS011;59659;41.520;23.794;2023-04-03T01:09:49;9.25;;;2.28;;
71814;SDS011;59659;41.520;23.794;2023-04-03T01:11:02;6.05;;;2.10;;
71814;SDS011;59659;41.520;23.794;2023-04-03T01:13:29;5.85;;;2.20;;
71814;SDS011;59659;41.520;23.794;2023-04-03T01:14:41;5.82;;;1.45;;
71814;SDS011;59659;41.520;23.794;2023-04-03T01:15:55;5.72;;;1.95;;
71814;SDS011;59659;41.520;23.794;2023-04-03T01:18:37;6.00;;;2.50;;
71814;SDS011;59659;41.520;23.794;2023-04-03T01:19:51;5.72;;;2.42;;
71814;SDS011;59659;41.520;23.794;2023-04-03T01:22:19;4.25;;;1.95;;
71814;SDS011;59659;41.520;23.794;2023-04-03T01:23:53;8.90;;;3.50;;
71814;SDS011;59659;41.520;23.794;2023-04-03T01:25:07;9.63;;;3.55;;
71814;SDS011;59659;41.520;23.794;2023-04-03T01:26:18;12.57;;;4.05;;
71814;SDS011;59659;41.520;23.794;2023-04-03T01:27:30;8.93;;;3.80;;
71814;SDS011;59659;41.520;23.794;2023-04-03T01:28:41;6.57;;;2.72;;
71814;SDS011;59659;41.520;23.794;2023-04-03T01:29:53;6.63;;;2.50;;
71814;SDS011;59659;41.520;23.794;2023-04-03T01:32:16;4.45;;;2.15;;
71814;SDS011;59659;41.520;23.794;2023-04-03T01:33:27;7.55;;;2.45;;
71814;SDS011;59659;41.520;23.794;2023-04-03T01:34:39;4.80;;;2.50;;
71814;SDS011;59659;41.520;23.794;2023-04-03T01:35:50;4.47;;;2.28;;
71814;SDS011;59659;41.520;23.794;2023-04-03T01:37:02;4.85;;;2.42;;
71814;SDS011;59659;41.520;23.794;2023-04-03T01:38:13;7.93;;;2.13;;
71814;SDS011;59659;41.520;23.794;2023-04-03T01:39:26;2.88;;;2.10;;
71814;SDS011;59659;41.520;23.794;2023-04-03T01:40:37;6.55;;;2.35;;
71814;SDS011;59659;41.520;23.794;2023-04-03T01:41:49;6.00;;;2.22;;
71814;SDS011;59659;41.520;23.794;2023-04-03T01:43:01;4.32;;;1.63;;
71814;SDS011;59659;41.520;23.794;2023-04-03T01:44:12;4.25;;;2.00;;
71814;SDS011;59659;41.520;23.794;2023-04-03T01:45:24;3.58;;;1.77;;
71814;SDS011;59659;41.520;23.794;2023-04-03T01:46:35;3.42;;;1.73;;
71814;SDS011;59659;41.520;23.794;2023-04-03T01:47:49;4.13;;;1.95;;
71814;SDS011;59659;41.520;23.794;2023-04-03T01:49:01;6.32;;;2.13;;
71814;SDS011;59659;41.520;23.794;2023-04-03T01:50:13;8.88;;;3.17;;
71814;SDS011;59659;41.520;23.794;2023-04-03T01:51:24;9.43;;;2.95;;
71814;SDS011;59659;41.520;23.794;2023-04-03T01:52:37;5.60;;;3.17;;
71814;SDS011;59659;41.520;23.794;2023-04-03T01:53:48;8.85;;;2.60;;
71814;SDS011;59659;41.520;23.794;2023-04-03T01:55:00;4.95;;;2.45;;
71814;SDS011;59659;41.520;23.794;2023-04-03T01:56:12;4.97;;;2.33;;
71814;SDS011;59659;41.520;23.794;2023-04-03T01:57:23;2.55;;;1.67;;
71814;SDS011;59659;41.520;23.794;2023-04-03T01:58:35;2.70;;;1.80;;
71814;SDS011;59659;41.520;23.794;2023-04-03T01:59:46;5.80;;;1.65;;
71814;SDS011;59659;41.520;23.794;2023-04-03T02:01:00;2.33;;;1.45;;
71814;SDS011;59659;41.520;23.794;2023-04-03T02:02:12;2.50;;;1.48;;
71814;SDS011;59659;41.520;23.794;2023-04-03T02:03:25;7.32;;;1.60;;
71814;SDS011;59659;41.520;23.794;2023-04-03T02:04:37;2.17;;;1.75;;
71814;SDS011;59659;41.520;23.794;2023-04-03T02:05:49;2.30;;;1.40;;
71814;SDS011;59659;41.520;23.794;2023-04-03T02:07:03;3.33;;;1.48;;
71814;SDS011;59659;41.520;23.794;2023-04-03T02:08:15;3.55;;;1.48;;
71814;SDS011;59659;41.520;23.794;2023-04-03T02:09:29;16.35;;;6.63;;
71814;SDS011;59659;41.520;23.794;2023-04-03T02:10:40;20.33;;;6.97;;
71814;SDS011;59659;41.520;23.794;2023-04-03T02:11:52;14.55;;;5.43;;
71814;SDS011;59659;41.520;23.794;2023-04-03T02:13:03;13.95;;;4.88;;
71814;SDS011;59659;41.520;23.794;2023-04-03T02:14:15;16.23;;;5.45;;
71814;SDS011;59659;41.520;23.794;2023-04-03T02:15:26;10.85;;;4.55;;
71814;SDS011;59659;41.520;23.794;2023-04-03T02:16:38;12.80;;;5.25;;
71814;SDS011;59659;41.520;23.794;2023-04-03T02:17:50;12.57;;;4.57;;
71814;SDS011;59659;41.520;23.794;2023-04-03T02:19:01;17.42;;;5.60;;
71814;SDS011;59659;41.520;23.794;2023-04-03T02:20:13;12.32;;;4.88;;
71814;SDS011;59659;41.520;23.794;2023-04-03T02:21:24;10.40;;;4.05;;
71814;SDS011;59659;41.520;23.794;2023-04-03T02:22:36;6.00;;;4.00;;
71814;SDS011;59659;41.520;23.794;2023-04-03T02:23:47;8.15;;;3.90;;
71814;SDS011;59659;41.520;23.794;2023-04-03T02:24:59;6.03;;;3.45;;
71814;SDS011;59659;41.520;23.794;2023-04-03T02:26:11;10.70;;;3.63;;
71814;SDS011;59659;41.520;23.794;2023-04-03T02:27:23;6.60;;;3.25;;
71814;SDS011;59659;41.520;23.794;2023-04-03T02:28:34;7.03;;;2.72;;
71814;SDS011;59659;41.520;23.794;2023-04-03T02:29:48;5.53;;;3.28;;
71814;SDS011;59659;41.520;23.794;2023-04-03T02:31:00;7.15;;;3.03;;
71814;SDS011;59659;41.520;23.794;2023-04-03T02:32:12;3.63;;;2.08;;
71814;SDS011;59659;41.520;23.794;2023-04-03T02:33:24;3.63;;;2.10;;
71814;SDS011;59659;41.520;23.794;2023-04-03T02:34:35;7.07;;;2.47;;
71814;SDS011;59659;41.520;23.794;2023-04-03T02:35:47;2.33;;;1.85;;
71814;SDS011;59659;41.520;23.794;2023-04-03T02:37:04;1.90;;;1.40;;
71814;SDS011;59659;41.520;23.794;2023-04-03T02:38:16;3.50;;;1.95;;
71814;SDS011;59659;41.520;23.794;2023-04-03T02:39:27;2.40;;;1.33;;
71814;SDS011;59659;41.520;23.794;2023-04-03T02:40:40;2.17;;;1.48;;
71814;SDS011;59659;41.520;23.794;2023-04-03T02:41:51;5.03;;;1.88;;
71814;SDS011;59659;41.520;23.794;2023-04-03T02:43:03;4.13;;;2.33;;
71814;SDS011;59659;41.520;23.794;2023-04-03T02:44:14;2.30;;;1.42;;
71814;SDS011;59659;41.520;23.794;2023-04-03T02:45:26;2.15;;;1.33;;
71814;SDS011;59659;41.520;23.794;2023-04-03T02:46:37;4.00;;;1.92;;
71814;SDS011;59659;41.520;23.794;2023-04-03T02:47:49;2.30;;;1.40;;
71814;SDS011;59659;41.520;23.794;2023-04-03T02:49:00;3.55;;;1.52;;
71814;SDS011;59659;41.520;23.794;2023-04-03T02:50:12;2.92;;;1.70;;
71814;SDS011;59659;41.520;23.794;2023-04-03T02:51:23;4.25;;;1.58;;
71814;SDS011;59659;41.520;23.794;2023-04-03T02:52:35;1.40;;;1.10;;
71814;SDS011;59659;41.520;23.794;2023-04-03T02:53:46;2.88;;;1.58;;
71814;SDS011;59659;41.520;23.794;2023-04-03T02:54:58;1.95;;;1.50;;
71814;SDS011;59659;41.520;23.794;2023-04-03T02:56:14;3.72;;;1.80;;
71814;SDS011;59659;41.520;23.794;2023-04-03T02:57:25;2.80;;;2.10;;
71814;SDS011;59659;41.520;23.794;2023-04-03T02:58:37;4.25;;;1.85;;
71814;SDS011;59659;41.520;23.794;2023-04-03T02:59:48;4.53;;;1.90;;
71814;SDS011;59659;41.520;23.794;2023-04-03T03:01:00;4.38;;;2.40;;
71814;SDS011;59659;41.520;23.794;2023-04-03T03:02:12;4.07;;;2.63;;
71814;SDS011;59659;41.520;23.794;2023-04-03T03:03:23;3.22;;;1.80;;
71814;SDS011;59659;41.520;23.794;2023-04-03T03:04:35;2.58;;;1.83;;
71814;SDS011;59659;41.520;23.794;2023-04-03T03:05:46;5.75;;;1.92;;
71814;SDS011;59659;41.520;23.794;2023-04-03T03:06:59;3.65;;;1.95;;
71814;SDS011;59659;41.520;23.794;2023-04-03T03:08:10;3.42;;;2.03;;
71814;SDS011;59659;41.520;23.794;2023-04-03T03:09:22;3.08;;;2.20;;
71814;SDS011;59659;41.520;23.794;2023-04-03T03:10:33;4.05;;;1.85;;
71814;SDS011;59659;41.520;23.794;2023-04-03T03:11:45;3.95;;;2.33;;
71814;SDS011;59659;41.520;23.794;2023-04-03T03:12:57;2.13;;;1.58;;
71814;SDS011;59659;41.520;23.794;2023-04-03T03:14:08;3.80;;;1.33;;
71814;SDS011;59659;41.520;23.794;2023-04-03T03:15:20;2.85;;;1.60;;
71814;SDS011;59659;41.520;23.794;2023-04-03T03:16:31;1.23;;;0.98;;
71814;SDS011;59659;41.520;23.794;2023-04-03T03:17:43;5.30;;;2.10;;
71814;SDS011;59659;41.520;23.794;2023-04-03T03:18:54;4.50;;;1.90;;
71814;SDS011;59659;41.520;23.794;2023-04-03T03:20:08;3.88;;;2.20;;
71814;SDS011;59659;41.520;23.794;2023-04-03T03:21:19;4.57;;;1.80;;
71814;SDS011;59659;41.520;23.794;2023-04-03T03:22:31;4.75;;;1.70;;
71814;SDS011;59659;41.520;23.794;2023-04-03T03:23:44;4.70;;;1.90;;
71814;SDS011;59659;41.520;23.794;2023-04-03T03:24:57;3.38;;;2.15;;
71814;SDS011;59659;41.520;23.794;2023-04-03T03:26:09;1.63;;;1.08;;
71814;SDS011;59659;41.520;23.794;2023-04-03T03:27:21;4.55;;;2.22;;
71814;SDS011;59659;41.520;23.794;2023-04-03T03:28:33;6.00;;;2.28;;
71814;SDS011;59659;41.520;23.794;2023-04-03T03:29:45;5.20;;;1.77;;
71814;SDS011;59659;41.520;23.794;2023-04-03T03:30:57;3.22;;;1.75;;
71814;SDS011;59659;41.520;23.794;2023-04-03T03:32:08;5.07;;;1.95;;
71814;SDS011;59659;41.520;23.794;2023-04-03T03:33:20;5.13;;;2.25;;
71814;SDS011;59659;41.520;23.794;2023-04-03T03:34:31;4.75;;;1.63;;
71814;SDS011;59659;41.520;23.794;2023-04-03T03:35:43;5.05;;;1.95;;
71814;SDS011;59659;41.520;23.794;2023-04-03T03:36:55;6.75;;;1.83;;
71814;SDS011;59659;41.520;23.794;2023-04-03T03:38:06;6.63;;;1.88;;
71814;SDS011;59659;41.520;23.794;2023-04-03T03:39:18;2.70;;;1.48;;
71814;SDS011;59659;41.520;23.794;2023-04-03T03:40:29;2.40;;;1.63;;
71814;SDS011;59659;41.520;23.794;2023-04-03T03:41:40;6.47;;;2.20;;
71814;SDS011;59659;41.520;23.794;2023-04-03T03:42:52;3.35;;;1.83;;
71814;SDS011;59659;41.520;23.794;2023-04-03T03:44:03;4.35;;;2.10;;
71814;SDS011;59659;41.520;23.794;2023-04-03T03:45:15;7.28;;;2.53;;
71814;SDS011;59659;41.520;23.794;2023-04-03T03:46:26;5.32;;;1.73;;
71814;SDS011;59659;41.520;23.794;2023-04-03T03:47:39;6.38;;;2.10;;
71814;SDS011;59659;41.520;23.794;2023-04-03T03:48:51;5.25;;;2.30;;
71814;SDS011;59659;41.520;23.794;2023-04-03T03:50:02;4.35;;;2.03;;
71814;SDS011;59659;41.520;23.794;2023-04-03T03:51:14;3.75;;;1.90;;
71814;SDS011;59659;41.520;23.794;2023-04-03T03:52:26;3.75;;;1.80;;
71814;SDS011;59659;41.520;23.794;2023-04-03T03:53:37;3.72;;;2.05;;
71814;SDS011;59659;41.520;23.794;2023-04-03T03:54:52;6.82;;;2.00;;
71814;SDS011;59659;41.520;23.794;2023-04-03T03:56:04;6.25;;;2.95;;
71814;SDS011;59659;41.520;23.794;2023-04-03T03:57:17;8.00;;;3.38;;
71814;SDS011;59659;41.520;23.794;2023-04-03T03:58:29;3.42;;;2.25;;
71814;SDS011;59659;41.520;23.794;2023-04-03T03:59:40;8.20;;;2.63;;
71814;SDS011;59659;41.520;23.794;2023-04-03T04:00:53;6.68;;;4.03;;
71814;SDS011;59659;41.520;23.794;2023-04-03T04:02:04;5.15;;;3.38;;
71814;SDS011;59659;41.520;23.794;2023-04-03T04:03:16;6.13;;;3.88;;
71814;SDS011;59659;41.520;23.794;2023-04-03T04:04:28;11.00;;;5.90;;
71814;SDS011;59659;41.520;23.794;2023-04-03T04:05:39;11.07;;;7.00;;
71814;SDS011;59659;41.520;23.794;2023-04-03T04:06:51;9.35;;;5.65;;
71814;SDS011;59659;41.520;23.794;2023-04-03T04:08:03;10.75;;;4.60;;
71814;SDS011;59659;41.520;23.794;2023-04-03T04:09:14;8.02;;;4.38;;
71814;SDS011;59659;41.520;23.794;2023-04-03T04:10:28;11.23;;;4.35;;
71814;SDS011;59659;41.520;23.794;2023-04-03T04:11:39;7.82;;;3.60;;
71814;SDS011;59659;41.520;23.794;2023-04-03T04:12:51;9.13;;;3.92;;
71814;SDS011;59659;41.520;23.794;2023-04-03T04:14:03;6.97;;;3.65;;
71814;SDS011;59659;41.520;23.794;2023-04-03T04:15:14;9.38;;;4.68;;
71814;SDS011;59659;41.520;23.794;2023-04-03T04:16:26;9.18;;;4.50;;
71814;SDS011;59659;41.520;23.794;2023-04-03T04:17:37;8.63;;;4.25;;
71814;SDS011;59659;41.520;23.794;2023-04-03T04:18:49;9.70;;;4.70;;
71814;SDS011;59659;41.520;23.794;2023-04-03T04:20:01;13.57;;;6.40;;
71814;SDS011;59659;41.520;23.794;2023-04-03T04:21:14;15.75;;;7.38;;
71814;SDS011;59659;41.520;23.794;2023-04-03T04:22:26;8.85;;;5.28;;
71814;SDS011;59659;41.520;23.794;2023-04-03T04:23:37;7.82;;;4.50;;
71814;SDS011;59659;41.520;23.794;2023-04-03T04:24:49;9.50;;;4.78;;
71814;SDS011;59659;41.520;23.794;2023-04-03T04:26:00;7.22;;;3.20;;
71814;SDS011;59659;41.520;23.794;2023-04-03T04:27:12;7.10;;;2.97;;
71814;SDS011;59659;41.520;23.794;2023-04-03T04:28:23;7.57;;;3.10;;
71814;SDS011;59659;41.520;23.794;2023-04-03T04:29:35;7.30;;;3.22;;
71814;SDS011;59659;41.520;23.794;2023-04-03T04:30:48;6.55;;;4.32;;
71814;SDS011;59659;41.520;23.794;2023-04-03T04:31:59;9.63;;;4.60;;
71814;SDS011;59659;41.520;23.794;2023-04-03T04:33:11;9.55;;;4.55;;
71814;SDS011;59659;41.520;23.794;2023-04-03T04:34:22;7.75;;;4.30;;
71814;SDS011;59659;41.520;23.794;2023-04-03T04:35:34;7.35;;;3.42;;
71814;SDS011;59659;41.520;23.794;2023-04-03T04:36:46;4.28;;;2.85;;
71814;SDS011;59659;41.520;23.794;2023-04-03T04:37:59;7.18;;;3.13;;
71814;SDS011;59659;41.520;23.794;2023-04-03T04:39:11;4.18;;;2.63;;
71814;SDS011;59659;41.520;23.794;2023-04-03T04:40:22;5.03;;;2.10;;
71814;SDS011;59659;41.520;23.794;2023-04-03T04:41:37;5.80;;;2.72;;
71814;SDS011;59659;41.520;23.794;2023-04-03T04:42:48;5.18;;;2.90;;
71814;SDS011;59659;41.520;23.794;2023-04-03T04:44:00;7.20;;;2.58;;
71814;SDS011;59659;41.520;23.794;2023-04-03T04:45:11;3.97;;;2.55;;
71814;SDS011;59659;41.520;23.794;2023-04-03T04:46:23;4.68;;;2.42;;
71814;SDS011;59659;41.520;23.794;2023-04-03T04:47:34;4.13;;;2.47;;
71814;SDS011;59659;41.520;23.794;2023-04-03T04:48:46;4.07;;;2.25;;
71814;SDS011;59659;41.520;23.794;2023-04-03T04:50:00;4.03;;;2.60;;
71814;SDS011;59659;41.520;23.794;2023-04-03T04:51:11;4.55;;;2.22;;
71814;SDS011;59659;41.520;23.794;2023-04-03T04:52:23;4.88;;;2.60;;
71814;SDS011;59659;41.520;23.794;2023-04-03T04:53:34;5.63;;;2.85;;
71814;SDS011;59659;41.520;23.794;2023-04-03T04:54:48;3.05;;;1.83;;
71814;SDS011;59659;41.520;23.794;2023-04-03T04:55:59;4.53;;;3.22;;
71814;SDS011;59659;41.520;23.794;2023-04-03T04:57:11;4.57;;;3.30;;
71814;SDS011;59659;41.520;23.794;2023-04-03T04:58:22;7.68;;;3.80;;
71814;SDS011;59659;41.520;23.794;2023-04-03T04:59:34;7.32;;;4.10;;
71814;SDS011;59659;41.520;23.794;2023-04-03T05:00:45;8.55;;;3.83;;
71814;SDS011;59659;41.520;23.794;2023-04-03T05:01:57;8.23;;;4.05;;
71814;SDS011;59659;41.520;23.794;2023-04-03T05:03:08;9.80;;;6.18;;
71814;SDS011;59659;41.520;23.794;2023-04-03T05:04:20;12.57;;;5.53;;
71814;SDS011;59659;41.520;23.794;2023-04-03T05:05:32;12.13;;;4.80;;
71814;SDS011;59659;41.520;23.794;2023-04-03T05:06:44;12.68;;;5.95;;
71814;SDS011;59659;41.520;23.794;2023-04-03T05:07:58;12.85;;;5.35;;
71814;SDS011;59659;41.520;23.794;2023-04-03T05:09:10;9.68;;;5.22;;
71814;SDS011;59659;41.520;23.794;2023-04-03T05:10:21;10.88;;;5.82;;
71814;SDS011;59659;41.520;23.794;2023-04-03T05:11:34;14.48;;;6.97;;
71814;SDS011;59659;41.520;23.794;2023-04-03T05:12:46;11.43;;;6.50;;
71814;SDS011;59659;41.520;23.794;2023-04-03T05:13:57;23.17;;;6.88;;
71814;SDS011;59659;41.520;23.794;2023-04-03T05:15:09;14.85;;;7.35;;
71814;SDS011;59659;41.520;23.794;2023-04-03T05:16:20;15.57;;;6.40;;
71814;SDS011;59659;41.520;23.794;2023-04-03T05:17:32;16.25;;;6.95;;
71814;SDS011;59659;41.520;23.794;2023-04-03T05:18:44;12.77;;;6.63;;
71814;SDS011;59659;41.520;23.794;2023-04-03T05:19:55;18.98;;;8.40;;
71814;SDS011;59659;41.520;23.794;2023-04-03T05:21:06;23.13;;;10.23;;
71814;SDS011;59659;41.520;23.794;2023-04-03T05:22:18;30.08;;;13.88;;
71814;SDS011;59659;41.520;23.794;2023-04-03T05:23:29;31.45;;;14.88;;
71814;SDS011;59659;41.520;23.794;2023-04-03T05:24:41;50.78;;;18.55;;
71814;SDS011;59659;41.520;23.794;2023-04-03T05:25:52;42.92;;;15.57;;
71814;SDS011;59659;41.520;23.794;2023-04-03T05:27:04;36.08;;;15.23;;
71814;SDS011;59659;41.520;23.794;2023-04-03T05:28:16;25.50;;;11.20;;
71814;SDS011;59659;41.520;23.794;2023-04-03T05:29:27;29.15;;;14.27;;
71814;SDS011;59659;41.520;23.794;2023-04-03T05:30:39;23.67;;;12.68;;
71814;SDS011;59659;41.520;23.794;2023-04-03T05:31:51;20.25;;;11.10;;
71814;SDS011;59659;41.520;23.794;2023-04-03T05:33:02;14.82;;;6.45;;
71814;SDS011;59659;41.520;23.794;2023-04-03T05:34:14;22.30;;;7.43;;
71814;SDS011;59659;41.520;23.794;2023-04-03T05:35:25;19.95;;;9.10;;
71814;SDS011;59659;41.520;23.794;2023-04-03T05:36:37;16.95;;;7.72;;
71814;SDS011;59659;41.520;23.794;2023-04-03T05:37:49;24.55;;;7.85;;
71814;SDS011;59659;41.520;23.794;2023-04-03T05:39:00;8.95;;;5.68;;
71814;SDS011;59659;41.520;23.794;2023-04-03T05:40:12;10.20;;;5.82;;
71814;SDS011;59659;41.520;23.794;2023-04-03T05:41:24;13.15;;;6.53;;
71814;SDS011;59659;41.520;23.794;2023-04-03T05:42:36;17.85;;;6.80;;
71814;SDS011;59659;41.520;23.794;2023-04-03T05:43:47;13.27;;;6.35;;
71814;SDS011;59659;41.520;23.794;2023-04-03T05:44:58;19.10;;;9.27;;
71814;SDS011;59659;41.520;23.794;2023-04-03T05:46:11;16.88;;;7.30;;
71814;SDS011;59659;41.520;23.794;2023-04-03T05:47:23;16.27;;;7.05;;
71814;SDS011;59659;41.520;23.794;2023-04-03T05:48:34;14.07;;;6.85;;
71814;SDS011;59659;41.520;23.794;2023-04-03T05:49:46;20.63;;;8.07;;
71814;SDS011;59659;41.520;23.794;2023-04-03T05:50:58;19.48;;;8.45;;
71814;SDS011;59659;41.520;23.794;2023-04-03T05:52:17;20.45;;;9.13;;
71814;SDS011;59659;41.520;23.794;2023-04-03T05:53:31;20.65;;;9.57;;
71814;SDS011;59659;41.520;23.794;2023-04-03T05:54:44;15.80;;;9.02;;
71814;SDS011;59659;41.520;23.794;2023-04-03T05:55:58;14.65;;;8.35;;
71814;SDS011;59659;41.520;23.794;2023-04-03T05:57:09;23.50;;;9.85;;
71814;SDS011;59659;41.520;23.794;2023-04-03T05:58:21;22.92;;;9.75;;
71814;SDS011;59659;41.520;23.794;2023-04-03T05:59:32;24.23;;;11.30;;
71814;SDS011;59659;41.520;23.794;2023-04-03T06:00:44;30.27;;;16.23;;
71814;SDS011;59659;41.520;23.794;2023-04-03T06:01:56;38.63;;;20.05;;
71814;SDS011;59659;41.520;23.794;2023-04-03T06:03:07;38.45;;;18.15;;
71814;SDS011;59659;41.520;23.794;2023-04-03T06:04:19;39.38;;;18.50;;
71814;SDS011;59659;41.520;23.794;2023-04-03T06:05:32;48.03;;;19.67;;
71814;SDS011;59659;41.520;23.794;2023-04-03T06:07:58;32.08;;;14.00;;
71814;SDS011;59659;41.520;23.794;2023-04-03T06:09:10;27.08;;;10.65;;
71814;SDS011;59659;41.520;23.794;2023-04-03T06:10:24;32.65;;;13.48;;
71814;SDS011;59659;41.520;23.794;2023-04-03T06:11:38;26.80;;;11.57;;
71814;SDS011;59659;41.520;23.794;2023-04-03T06:12:50;32.92;;;15.63;;
71814;SDS011;59659;41.520;23.794;2023-04-03T06:14:02;33.38;;;17.27;;
71814;SDS011;59659;41.520;23.794;2023-04-03T06:15:14;42.78;;;17.73;;
71814;SDS011;59659;41.520;23.794;2023-04-03T06:16:26;38.13;;;17.45;;
71814;SDS011;59659;41.520;23.794;2023-04-03T06:17:38;42.05;;;18.58;;
71814;SDS011;59659;41.520;23.794;2023-04-03T06:18:50;36.08;;;16.45;;
71814;SDS011;59659;41.520;23.794;2023-04-03T06:20:01;34.03;;;17.90;;
71814;SDS011;59659;41.520;23.794;2023-04-03T06:21:14;40.78;;;19.35;;
71814;SDS011;59659;41.520;23.794;2023-04-03T06:22:26;37.17;;;19.25;;
71814;SDS011;59659;41.520;23.794;2023-04-03T06:23:37;34.55;;;18.73;;
71814;SDS011;59659;41.520;23.794;2023-04-03T06:24:49;31.92;;;18.15;;
71814;SDS011;59659;41.520;23.794;2023-04-03T06:26:01;34.50;;;16.05;;
71814;SDS011;59659;41.520;23.794;2023-04-03T06:27:12;30.27;;;14.80;;
71814;SDS011;59659;41.520;23.794;2023-04-03T06:28:26;17.80;;;9.43;;
71814;SDS011;59659;41.520;23.794;2023-04-03T06:29:38;24.27;;;11.32;;
71814;SDS011;59659;41.520;23.794;2023-04-03T06:30:50;25.67;;;11.82;;
71814;SDS011;59659;41.520;23.794;2023-04-03T06:32:01;11.65;;;5.22;;
71814;SDS011;59659;41.520;23.794;2023-04-03T06:33:13;11.85;;;6.03;;
71814;SDS011;59659;41.520;23.794;2023-04-03T06:34:24;14.75;;;6.30;;
71814;SDS011;59659;41.520;23.794;2023-04-03T06:35:36;13.50;;;6.80;;
71814;SDS011;59659;41.520;23.794;2023-04-03T06:36:49;10.02;;;5.40;;
71814;SDS011;59659;41.520;23.794;2023-04-03T06:38:01;8.98;;;4.35;;
71814;SDS011;59659;41.520;23.794;2023-04-03T06:39:18;5.05;;;3.25;;
71814;SDS011;59659;41.520;23.794;2023-04-03T06:40:31;7.72;;;3.35;;
71814;SDS011;59659;41.520;23.794;2023-04-03T06:41:43;5.75;;;3.83;;
71814;SDS011;59659;41.520;23.794;2023-04-03T06:42:54;7.95;;;5.18;;
71814;SDS011;59659;41.520;23.794;2023-04-03T06:44:06;11.75;;;5.15;;
71814;SDS011;59659;41.520;23.794;2023-04-03T06:45:17;8.77;;;4.93;;
71814;SDS011;59659;41.520;23.794;2023-04-03T06:46:29;8.77;;;3.90;;
71814;SDS011;59659;41.520;23.794;2023-04-03T06:47:40;7.65;;;4.45;;
71814;SDS011;59659;41.520;23.794;2023-04-03T06:48:52;5.85;;;3.75;;
71814;SDS011;59659;41.520;23.794;2023-04-03T06:50:04;8.80;;;3.63;;
71814;SDS011;59659;41.520;23.794;2023-04-03T06:51:18;7.03;;;3.63;;
71814;SDS011;59659;41.520;23.794;2023-04-03T06:52:30;11.75;;;4.22;;
71814;SDS011;59659;41.520;23.794;2023-04-03T06:53:41;6.45;;;3.42;;
71814;SDS011;59659;41.520;23.794;2023-04-03T06:54:53;15.45;;;6.85;;
71814;SDS011;59659;41.520;23.794;2023-04-03T06:56:08;15.05;;;5.97;;
71814;SDS011;59659;41.520;23.794;2023-04-03T06:57:19;13.23;;;5.35;;
71814;SDS011;59659;41.520;23.794;2023-04-03T06:58:31;8.80;;;5.03;;
71814;SDS011;59659;41.520;23.794;2023-04-03T06:59:43;12.77;;;6.13;;
71814;SDS011;59659;41.520;23.794;2023-04-03T07:00:54;57.05;;;23.58;;
71814;SDS011;59659;41.520;23.794;2023-04-03T07:02:08;17.90;;;7.55;;
71814;SDS011;59659;41.520;23.794;2023-04-03T07:03:20;47.45;;;16.70;;
71814;SDS011;59659;41.520;23.794;2023-04-03T07:04:32;13.23;;;5.75;;
71814;SDS011;59659;41.520;23.794;2023-04-03T07:05:43;13.07;;;6.10;;
71814;SDS011;59659;41.520;23.794;2023-04-03T07:06:56;99.65;;;27.48;;
71814;SDS011;59659;41.520;23.794;2023-04-03T07:08:10;71.43;;;21.65;;
71814;SDS011;59659;41.520;23.794;2023-04-03T07:09:22;5.88;;;3.60;;
71814;SDS011;59659;41.520;23.794;2023-04-03T07:10:33;57.42;;;18.73;;
71814;SDS011;59659;41.520;23.794;2023-04-03T07:11:45;183.43;;;46.88;;